In Rescue
 
Open Full Screen Window  High Contrast Mode
Wind Gusting 00 knots
08
April 20, 2024 7:41 AM CDT
Weather Information
Wind Direction
  330 °
Wind Speed
  08 kt (9 mph)
Wind Gust
  00 kt (0 mph)
Altimeter
30.24 in
Visibility
10 SM
Temperature
00° C
32° F
Dewpoint
-06° C
21° F
Humidity
64%
Sky Condition
Overcast @ 2,800 ft
MVFR

METAR K21D 201241Z AUTO 33008KT 10SM OVC028 00/M06 A3024 RMK AO2

FAA Disclaimer: The data displayed is for advisory purposes only and is not to be used for flight planning or operations.